Flight Track Log - Related Links

Times and Time Zones

All times are in EDT time to prevent confusion due to time zone crossing. See the CSN3364 flight status page for this flight to view local times or setup timezone preferences in your user account.


Time Position Orientation Groundspeed Altitude Reporting Facility
EDT Latitude Longitude Course Direction KTS MPH feet Rate Location/Type
Sat 11:08:00 PM 34.6341 112.3980 176° South  Level Estimated
Sat 11:09:00 PM 34.5270 112.4076 176° South  Level Estimated
Sat 11:10:00 PM 34.4200 112.4172 176° South  Level Estimated
Sat 11:11:00 PM 34.3129 112.4268 176° South  Level Estimated
Sat 11:12:00 PM 34.2059 112.4363 176° South  Level Estimated
Sat 11:13:00 PM 34.0988 112.4458 176° South  Level Estimated
Sat 11:14:00 PM 33.9918 112.4553 176° South  Level Estimated
Sat 11:15:00 PM 33.8847 112.4648 176° South  Level Estimated
Sat 11:16:00 PM 33.7777 112.4743 176° South  Level Estimated
Sat 11:17:00 PM 33.6706 112.4837 176° South  Level Estimated
Sat 11:18:00 PM 33.5635 112.4931 176° South  Level Estimated
Sat 11:19:00 PM 33.4565 112.5025 176° South  Level Estimated
Sat 11:20:00 PM 33.3494 112.5118 176° South  Level Estimated
Sat 11:21:00 PM 33.2424 112.5212 176° South  Level Estimated
Sat 11:22:00 PM 33.1353 112.5305 176° South  Level Estimated
Sat 11:23:00 PM 33.0283 112.5398 176° South  Level Estimated
Sat 11:24:00 PM 32.9212 112.5490 176° South  Level Estimated
Sat 11:25:00 PM 32.8141 112.5583 176° South  Level Estimated
Sat 11:26:00 PM 32.7071 112.5675 176° South  Level Estimated
Sat 11:27:00 PM 32.6000 112.5767 176° South  Level Estimated
Sat 11:28:00 PM 32.4930 112.5859 176° South  Level Estimated
Sat 11:29:00 PM 32.3859 112.5950 176° South  Level Estimated
Sat 11:30:00 PM 32.2788 112.6042 176° South  Level Estimated
Sat 11:31:00 PM 32.1718 112.6133 176° South  Level Estimated
Sat 11:32:00 PM 32.0647 112.6224 176° South  Level Estimated
Sat 11:33:00 PM 31.9576 112.6314 176° South  Level Estimated
Sat 11:34:00 PM 31.8506 112.6405 176° South  Level Estimated
Sat 11:35:00 PM 31.7435 112.6495 176° South  Level Estimated
Sat 11:36:00 PM 31.6364 112.6585 176° South  Level Estimated
Sat 11:37:00 PM 31.5294 112.6675 176° South  Level Estimated
Sat 11:38:00 PM 31.4223 112.6765 176° South  Level Estimated
Sat 11:39:00 PM 31.3152 112.6854 176° South  Level Estimated
Sat 11:40:00 PM 31.2082 112.6944 176° South  Level Estimated
Sat 11:41:00 PM 31.1011 112.7032 176° South  Level Estimated
Sat 11:42:00 PM 30.9940 112.7121 176° South  Level Estimated
Sat 11:43:00 PM 30.8869 112.7210 176° South  Level Estimated
Sat 11:44:00 PM 30.7799 112.7298 176° South  Level Estimated
Sat 11:45:00 PM 30.6728 112.7387 176° South  Level Estimated
Sat 11:46:00 PM 30.5657 112.7475 176° South  Level Estimated
Sat 11:47:00 PM 30.4587 112.7563 176° South  Level Estimated
Sat 11:48:00 PM 30.3516 112.7650 176° South  Level Estimated
Sat 11:49:00 PM 30.2445 112.7738 176° South  Level Estimated
Sat 11:50:00 PM 30.1374 112.7825 176° South  Level Estimated
Sat 11:51:00 PM 30.0303 112.7912 176° South  Level Estimated
Sat 11:52:00 PM 29.9233 112.7999 176° South  Level Estimated
Sat 11:53:00 PM 29.8162 112.8086 176° South  Level Estimated
Sat 11:54:00 PM 29.7091 112.8172 176° South  Level Estimated
Sat 11:55:00 PM 29.6020 112.8259 176° South  Level Estimated
Sat 11:56:00 PM 29.4949 112.8345 176° South  Level Estimated
Sat 11:57:00 PM 29.3879 112.8431 176° South  Level Estimated
Sat 11:58:00 PM 29.2808 112.8517 176° South  Level Estimated
Sat 11:59:00 PM 29.1737 112.8602 176° South  Level Estimated
Sun 12:00:00 AM 29.0666 112.8688 176° South  Level Estimated
Sun 12:01:00 AM 28.9596 112.8773 176° South  Level Estimated
Sun 12:02:00 AM 28.8525 112.8858 176° South  Level Estimated
Sun 12:03:00 AM 28.7454 112.8943 176° South  Level Estimated
Sun 12:04:00 AM 28.6383 112.9028 176° South  Level Estimated
Sun 12:05:00 AM 28.5312 112.9112 176° South  Level Estimated
Sun 12:06:00 AM 28.4242 112.9197 176° South  Level Estimated
Sun 12:07:00 AM 28.3171 112.9281 176° South  Level Estimated
Sun 12:08:00 AM 28.2100 112.9365 176° South  Level Estimated
Sun 12:09:00 AM 28.1029 112.9449 176° South  Level Estimated
Sun 12:10:00 AM 27.9958 112.9533 176° South  Level Estimated
Sun 12:11:00 AM 27.8887 112.9616 176° South  Level Estimated
Sun 12:12:00 AM 27.7816 112.9700 176° South  Level Estimated
Sun 12:13:00 AM 27.6745 112.9783 176° South  Level Estimated
Sun 12:14:00 AM 27.5674 112.9866 176° South  Level Estimated
Sun 12:15:00 AM 27.4603 112.9949 176° South  Level Estimated
Sun 12:16:00 AM 27.3533 113.0032 176° South  Level Estimated
Sun 12:17:00 AM 27.2462 113.0114 176° South  Level Estimated
Sun 12:18:00 AM 27.1391 113.0197 176° South  Level Estimated
Sun 12:19:00 AM 27.0320 113.0279 176° South  Level Estimated
Sun 12:20:00 AM 26.9249 113.0361 176° South  Level Estimated
Sun 12:21:00 AM 26.8178 113.0443 176° South  Level Estimated
Sun 12:22:00 AM 26.7107 113.0525 176° South  Level Estimated
Sun 12:23:00 AM 26.6036 113.0606 176° South  Level Estimated
Sun 12:24:00 AM 26.4965 113.0688 176° South  Level Estimated
Sun 12:25:00 AM 26.3894 113.0769 176° South  Level Estimated
Sun 12:26:00 AM 26.2824 113.0850 176° South  Level Estimated
Sun 12:27:00 AM 26.1753 113.0931 176° South  Level Estimated
Sun 12:28:00 AM 26.0682 113.1012 176° South  Level Estimated
Sun 12:29:00 AM 25.9611 113.1093 176° South  Level Estimated
Sun 12:30:00 AM 25.8540 113.1174 176° South  Level Estimated
Sun 12:31:00 AM 25.7469 113.1254 176° South  Level Estimated
Sun 12:32:00 AM 25.6398 113.1335 176° South  Level Estimated
Sun 12:33:00 AM 25.5327 113.1415 176° South  Level Estimated
Sun 12:34:00 AM 25.4256 113.1495 176° South  Level Estimated
Sun 12:35:00 AM 25.3185 113.1575 176° South  Level Estimated
Sun 12:36:00 AM 25.2114 113.1654 176° South  Level Estimated
Sun 12:37:00 AM 25.1043 113.1734 176° South  Level Estimated
Sun 12:38:00 AM 24.9972 113.1813 176° South  Level Estimated
Sun 12:39:00 AM 24.8901 113.1893 176° South  Level Estimated
Sun 12:40:00 AM 24.7830 113.1972 176° South  Level Estimated
Sun 12:41:00 AM 24.6759 113.2051 176° South  Level Estimated
Sun 12:42:00 AM 24.5688 113.2130 176° South  Level Estimated
Sun 12:43:00 AM 24.4617 113.2209 176° South  Level Estimated
Sun 12:44:00 AM 24.3546 113.2287 176° South  Level Estimated
Sun 12:45:00 AM 24.2475 113.2366 176° South  Level Estimated
Sun 12:46:00 AM 24.1404 113.2444 176° South  Level Estimated
Sun 12:47:00 AM 24.0333 113.2522 176° South  Level Estimated
Sun 12:48:00 AM 23.9262 113.2600 176° South  Level Estimated
Sun 12:49:00 AM 23.8191 113.2679 176° South  Level Estimated
Sun 12:50:00 AM 23.7120 113.2756 176° South  Level Estimated
Sun 12:51:00 AM 23.6049 113.2834 176° South  Level Estimated
Sun 12:52:00 AM 23.4977 113.2912 176° South  Level Estimated
Sun 12:53:00 AM 23.3924 113.2988 176° South  Level Estimated
Sun 12:54:00 AM 23.3924 113.2988 223° Southwest  Level Estimated
Sun 12:55:00 AM 23.3924 113.2988 223° Southwest  Level Estimated
Sun 12:56:00 AM 23.3924 113.2988 223° Southwest  Level Estimated
Sun 12:57:00 AM 23.3924 113.2988 223° Southwest  Level Estimated
Sun 12:58:00 AM 23.3924 113.2988 223° Southwest  Level Estimated
Sun 12:59:00 AM 23.3924 113.2988 223° Southwest  Level Estimated
Sun 01:00:00 AM 23.3924 113.2988 223° Southwest  Level Estimated
Sun 01:01:00 AM 23.3924 113.2988 223° Southwest  Level Estimated
Sun 01:02:00 AM 23.3924 113.2988 223° Southwest  Level Estimated
Sun 01:03:00 AM 23.3924 113.2988 223° Southwest  Level Estimated
Sun 01:04:00 AM 23.3924 113.2988 223° Southwest  Level Estimated
Sun 01:05:00 AM 23.3924 113.2988 223° Southwest  Level Estimated
Sun 01:06:00 AM 23.3924 113.2988 223° Southwest  Level Estimated
Sun 01:07:00 AM 23.3924 113.2988 223° Southwest  Level Estimated

Login

Don't have an account? Register now (free) for customized features, flight alerts, and more!